Latest Weather Observations for Newman Airport

IDW60801

Issued at 5:35 pm WST Monday 20 October 2014 (issued every 30 minutes, with the page automatically refreshed every 10 minutes)

About weather observations | Map of weather stations | Latest weather observations for WA | Other Formats
Station Details ID: 007176 Name: NEWMAN AERO Lat: -23.42 Lon: 119.80 Height: 524.0 m
Data from the previous 72 hours. | See also: Recent months at Newman Airport
Date/Time
WST
Temp
°C
App
Temp
°C
Dew
Point
Rel
Hum
%
Delta-T
°C
Wind Press
QNH
hPa
Press
MSL
hPa
Rain
since 9 am
mm
Dir
 
Spd
km/h
Gust
km/h
Spd
kts
Gust
kts
20/05:30pm 33.5 26.4 -14.0 4 18.9 WSW 20 28 11 15 1014.3 1011.0 0.0
20/05:00pm 34.7 28.2 -13.2 4 19.5 WSW 17 24 9 13 1013.9 1010.6 0.0
20/04:30pm 35.3 28.4 -12.8 4 19.9 WNW 19 30 10 16 1013.5 1010.1 0.0
20/04:00pm 35.2 28.0 -10.1 5 19.5 W 22 30 12 16 1013.6 1010.2 0.0
20/03:30pm 35.3 28.6 -10.0 5 19.5 W 19 26 10 14 1013.7 1010.4 0.0
20/03:00pm 34.7 29.1 -6.1 7 18.7 NNW 15 28 8 15 1014.0 1010.7 0.0
20/02:30pm 33.9 27.9 -6.7 7 18.3 NW 17 30 9 16 1014.2 1010.9 0.0
20/02:00pm 34.5 28.1 -4.5 8 18.3 WNW 20 32 11 17 1014.4 1011.1 0.0
20/01:30pm 34.5 28.3 -4.5 8 18.3 NW 19 41 10 22 1014.8 1011.5 0.0
20/01:00pm 33.2 26.7 -2.5 10 17.1 NNW 22 35 12 19 1015.4 1012.1 0.0
20/12:30pm 31.3 27.7 0.6 14 15.3 NNE 9 20 5 11 1015.9 1012.6 0.0
20/12:00pm 31.4 25.9 0.7 14 15.3 N 19 32 10 17 1016.4 1013.1 0.0
20/11:30am 30.0 25.9 2.3 17 14.1 NW 13 32 7 17 1017.2 1014.0 0.0
20/11:00am 29.0 25.4 3.1 19 13.3 NE 11 20 6 11 1017.8 1014.5 0.0
20/10:30am 28.7 26.0 2.8 19 13.2 NNE 6 15 3 8 1018.3 1015.0 0.0
20/10:00am 27.7 24.6 3.4 21 12.4 NE 9 17 5 9 1018.6 1015.3 0.0
20/09:30am 27.0 24.3 3.5 22 12.0 E 7 13 4 7 1018.7 1015.4 0.0
20/09:00am 25.9 23.1 3.2 23 11.4 SSE 7 13 4 7 1018.8 1015.6 0.0
20/08:30am 25.0 21.5 3.6 25 10.8 SSE 11 17 6 9 1018.9 1015.7 0.0
20/08:00am 23.9 20.4 5.3 30 9.6 SSE 13 19 7 10 1018.7 1015.4 0.0
20/07:30am 22.9 19.7 5.3 32 9.0 SSE 11 19 6 10 1018.5 1015.2 0.0
20/07:00am 21.0 19.6 7.3 41 7.2 S 4 9 2 5 1018.2 1014.9 0.0
20/06:30am 18.4 16.6 8.1 51 5.4 WSW 7 11 4 6 1018.0 1014.7 0.0
20/06:00am 16.0 14.4 8.0 59 4.1 SW 6 7 3 4 1017.7 1014.4 0.0
20/05:30am 15.2 13.3 7.7 61 3.8 SW 7 9 4 5 1017.4 1014.1 0.0
20/05:00am 15.5 13.6 7.5 59 4.1 WSW 7 9 4 5 1016.8 1013.5 0.0
20/04:30am 15.7 13.8 7.7 59 4.1 SW 7 9 4 5 1016.6 1013.3 0.0
20/04:00am 16.4 14.6 7.1 54 4.7 WSW 6 7 3 4 1016.4 1013.1 0.0
20/03:30am 16.9 14.4 6.7 51 5.2 WSW 9 11 5 6 1016.2 1012.9 0.0
20/03:00am 17.7 15.7 6.3 47 5.8 SW 6 9 3 5 1016.1 1012.8 0.0
20/02:30am 18.0 15.0 6.2 46 6.0 SW 11 13 6 7 1015.9 1012.6 0.0
20/02:00am 18.3 15.7 6.2 45 6.1 WSW 9 11 5 6 1015.9 1012.6 0.0
20/01:30am 18.4 15.8 6.3 45 6.2 WSW 9 11 5 6 1016.0 1012.7 0.0
20/01:00am 18.9 16.4 6.7 45 6.3 SW 9 9 5 5 1016.1 1012.8 0.0
20/12:30am 19.9 17.3 6.3 41 7.0 W 9 13 5 7 1016.0 1012.7 0.0
20/12:00am 19.7 19.6 9.3 51 5.6 W 0 0 0 0 1016.1 1012.8 0.0
 
Date/Time
WST
Temp
°C
App
Temp
°C
Dew
Point
Rel
Hum
%
Delta-T
°C
Wind Press
QNH
hPa
Press
MSL
hPa
Rain
since 9 am
mm
Dir
 
Spd
km/h
Gust
km/h
Spd
kts
Gust
kts
19/11:30pm 20.9 19.7 6.4 39 7.5 W 2 7 1 4 1016.2 1012.9 0.0
19/11:00pm 21.5 19.9 2.7 29 9.1 CALM 0 6 0 3 1016.2 1012.9 0.0
19/10:30pm 22.3 19.5 3.4 29 9.3 WSW 7 9 4 5 1016.2 1012.9 0.0
19/10:00pm 23.5 20.2 2.4 25 10.3 SW 9 11 5 6 1016.1 1012.8 0.0
19/09:30pm 24.7 21.1 2.8 24 10.9 WSW 11 15 6 8 1016.0 1012.7 0.0
19/09:00pm 25.7 21.5 3.6 24 11.2 SW 15 22 8 12 1015.7 1012.4 0.0
19/08:30pm 24.7 25.8 14.5 53 6.2 S 2 7 1 4 1015.0 1011.7 0.0
19/08:00pm 25.1 26.4 15.1 53 6.1 ESE 2 7 1 4 1014.5 1011.2 0.0
19/07:30pm 25.2 25.7 15.5 55 6.0 NE 7 9 4 5 1014.0 1010.7 0.0
19/07:00pm 26.6 26.3 12.6 42 8.3 SSE 6 9 3 5 1013.4 1010.0 0.0
19/06:30pm 26.7 24.9 13.4 43 8.0 E 15 20 8 11 1013.0 1009.7 0.0
19/06:00pm 29.4 27.8 11.5 33 10.6 E 11 15 6 8 1012.2 1008.9 0.0
19/05:30pm 29.5 28.6 11.5 33 10.6 SE 7 13 4 7 1012.1 1008.8 0.0
19/05:00pm 29.7 27.5 10.8 31 11.1 SSW 13 19 7 10 1012.0 1008.7 0.0
19/04:30pm 29.8 27.3 12.3 34 10.5 SSW 17 22 9 12 1012.0 1008.7 0.0
19/04:00pm 30.2 26.4 11.2 31 11.2 SW 22 32 12 17 1011.7 1008.3 0.0
19/03:30pm 30.4 27.0 10.4 29 11.7 WSW 19 26 10 14 1011.8 1008.4 0.0
19/03:00pm 30.7 27.3 10.6 29 11.8 SW 19 24 10 13 1011.8 1008.4 0.0
19/02:30pm 32.2 29.3 9.7 25 13.1 WNW 15 35 8 19 1012.0 1008.7 0.0
19/02:00pm 31.7 27.9 9.8 26 12.7 NW 20 28 11 15 1012.4 1009.1 0.0
19/01:30pm 31.1 27.3 9.9 27 12.3 WNW 20 26 11 14 1013.0 1009.7 0.0
19/01:00pm 30.1 27.5 10.6 30 11.4 N 15 26 8 14 1013.6 1010.2 0.0
19/12:45pm 30.9 25.9 10.8 29 11.8 NW 28 44 15 24 1013.8 1010.5 0.0
19/12:30pm 29.7 28.5 11.7 33 10.7 WNW 9 19 5 10 1013.9 1010.6 0.0
19/12:00pm 30.0 27.1 12.9 35 10.3 WNW 20 28 11 15 1014.3 1011.0 0.0
19/11:58am 29.9 25.7 13.6 36 10.0 W 28 41 15 22 1014.2 1010.9 0.0
19/11:30am 28.3 26.6 12.6 38 9.4 WNW 13 20 7 11 1014.8 1011.5 0.0
19/11:00am 27.6 24.7 12.8 40 8.9 WNW 20 32 11 17 1015.4 1012.1 0.0
19/10:30am 26.9 25.6 13.6 44 8.0 SW 13 20 7 11 1015.6 1012.3 0.0
19/10:00am 25.9 24.6 13.7 47 7.4 W 13 20 7 11 1016.0 1012.7 0.0
19/09:30am 25.8 23.5 14.6 50 6.8 SW 20 26 11 14 1016.1 1012.8 0.0
19/09:00am 24.4 22.5 14.2 53 6.2 WSW 17 26 9 14 1016.1 1012.8 0.0
19/08:30am 24.2 23.1 14.3 54 6.0 SW 13 24 7 13 1016.1 1012.8 0.0
19/08:00am 23.2 22.0 15.0 60 5.0 WSW 15 19 8 10 1016.0 1012.7 0.0
19/07:30am 22.1 21.5 15.7 67 3.9 SW 13 19 7 10 1015.8 1012.5 0.0
19/07:00am 21.0 20.5 16.0 73 3.1 WSW 13 20 7 11 1015.5 1012.2 0.0
19/06:30am 19.8 20.4 15.9 78 2.4 W 7 9 4 5 1015.2 1011.9 0.0
19/06:00am 18.7 20.5 15.6 82 1.9 CALM 0 0 0 0 1014.9 1011.6 0.0
19/05:30am 18.8 19.2 15.3 80 2.1 WSW 7 11 4 6 1014.4 1011.1 0.0
19/05:00am 19.4 18.5 14.9 75 2.7 WSW 13 17 7 9 1014.0 1010.7 0.0
19/04:30am 20.0 19.2 15.0 73 3.0 WSW 13 15 7 8 1013.7 1010.4 0.0
19/04:00am 19.6 19.8 15.7 78 2.4 NW 9 11 5 6 1013.2 1009.9 0.0
19/03:30am 19.5 20.2 16.0 80 2.1 NW 7 9 4 5 1013.0 1009.7 0.0
19/03:00am 19.4 20.3 16.1 81 2.0 NNW 6 7 3 4 1013.1 1009.8 0.0
19/02:30am 19.8 21.5 16.1 79 2.3 WNW 2 7 1 4 1013.1 1009.8 0.0
19/02:00am 20.5 20.4 15.9 75 2.8 NE 11 13 6 7 1013.1 1009.8 0.0
19/01:30am 20.4 20.7 16.0 76 2.7 NE 9 11 5 6 1013.2 1009.9 0.0
19/01:00am 20.8 22.3 15.8 73 3.1 N 2 7 1 4 1013.4 1010.0 0.0
19/12:30am 21.0 21.4 16.2 74 3.0 NNE 9 11 5 6 1013.6 1010.2 0.0
19/12:00am 21.2 22.0 16.4 74 3.0 NE 7 11 4 6 1013.8 1010.5 0.0
 
Date/Time
WST
Temp
°C
App
Temp
°C
Dew
Point
Rel
Hum
%
Delta-T
°C
Wind Press
QNH
hPa
Press
MSL
hPa
Rain
since 9 am
mm
Dir
 
Spd
km/h
Gust
km/h
Spd
kts
Gust
kts
18/11:30pm 21.7 23.8 16.2 71 3.4 CALM 0 0 0 0 1014.0 1010.7 0.0
18/11:00pm 22.1 24.3 16.4 70 3.5 CALM 0 0 0 0 1014.3 1011.0 0.0
18/10:30pm 22.8 24.6 15.6 64 4.4 CALM 0 0 0 0 1014.1 1010.8 0.0
18/10:00pm 22.9 24.8 15.7 64 4.4 CALM 0 0 0 0 1014.3 1011.0 0.0
18/09:30pm 23.7 25.2 14.7 57 5.5 CALM 0 0 0 0 1014.4 1011.1 0.0
18/09:00pm 24.0 24.4 14.7 56 5.7 WSW 6 7 3 4 1014.0 1010.7 0.0
18/08:30pm 24.8 24.2 14.6 53 6.2 SW 11 15 6 8 1013.8 1010.5 0.0
18/08:00pm 25.4 23.4 13.9 49 6.9 SW 17 24 9 13 1013.6 1010.2 0.0
18/07:30pm 26.3 23.2 13.4 45 7.8 WSW 22 37 12 20 1013.4 1010.0 0.0
18/07:00pm 30.3 27.7 9.2 27 12.1 NW 13 19 7 10 1012.3 1009.0 0.0
18/06:30pm 30.9 27.6 8.0 24 12.9 NNW 15 22 8 12 1011.7 1008.3 0.0
18/06:00pm 31.6 27.5 7.9 23 13.4 NNW 19 28 10 15 1011.2 1007.9 0.0
18/05:30pm 31.9 27.3 8.2 23 13.4 N 22 35 12 19 1010.9 1007.6 0.0
18/05:00pm 32.0 27.7 9.5 25 13.0 N 22 32 12 17 1010.9 1007.6 0.0
18/04:30pm 32.6 27.8 8.8 23 13.7 N 24 37 13 20 1010.9 1007.6 0.0
18/04:00pm 32.4 28.2 9.9 25 13.1 N 22 35 12 19 1010.9 1007.6 0.0
18/03:30pm 32.6 27.0 8.8 23 13.7 N 28 43 15 23 1010.7 1007.4 0.0
18/03:00pm 32.4 29.1 11.6 28 12.5 N 20 35 11 19 1011.0 1007.7 0.0
18/02:30pm 32.1 29.1 11.8 29 12.2 N 19 26 10 14 1011.5 1008.1 0.0
18/02:00pm 32.3 28.7 13.0 31 11.8 NNE 24 33 13 18 1012.0 1008.7 0.0
18/01:30pm 32.5 30.3 13.2 31 11.8 N 17 28 9 15 1012.4 1009.1 0.0
18/01:00pm 31.2 28.8 12.5 31 11.3 NE 17 28 9 15 1012.9 1009.6 0.0
18/12:30pm 30.8 28.4 12.7 33 11.0 N 17 24 9 13 1013.7 1010.4 0.0
18/12:00pm 30.8 28.3 13.6 35 10.6 NNE 19 33 10 18 1014.3 1011.0 0.0
18/11:30am 30.9 29.1 14.5 37 10.2 N 17 28 9 15 1015.0 1011.7 0.0
18/11:00am 29.2 26.7 14.2 40 9.2 NE 20 28 11 15 1015.6 1012.3 0.0
18/10:30am 28.4 26.5 15.7 46 8.0 NNE 20 32 11 17 1015.9 1012.6 0.0
18/10:00am 27.2 26.2 16.5 52 6.8 NNE 17 24 9 13 1016.4 1013.1 0.0
18/09:30am 26.5 25.4 16.4 53 6.4 NNE 17 24 9 13 1016.5 1013.2 0.0
18/09:00am 25.5 25.9 18.2 64 4.7 NE 13 17 7 9 1016.8 1013.5 6.4
18/08:30am 24.0 25.5 18.0 69 3.8 NE 7 11 4 6 1016.8 1013.5 6.4
18/08:00am 22.9 23.7 19.1 79 2.5 NE 13 17 7 9 1016.6 1013.3 6.4
18/07:30am 21.6 23.0 18.6 83 1.9 NE 9 13 5 7 1016.7 1013.4 6.4
18/07:00am 20.3 22.8 19.1 93 0.8 NNE 4 9 2 5 1016.5 1013.2 6.4
18/06:30am 19.1 21.0 18.9 99 0.1 ENE 7 11 4 6 1016.3 1013.0 6.4
18/06:00am 18.7 21.8 18.7 100 0.0 CALM 0 0 0 0 1015.8 1012.5 6.4
18/05:30am 18.3 21.2 18.3 100 0.0 CALM 0 0 0 0 1015.5 1012.2 6.4
18/05:00am 18.5 21.5 18.5 100 0.0 CALM 0 0 0 0 1015.1 1011.8 6.4
18/04:30am 18.4 21.4 18.4 100 0.0 CALM 0 0 0 0 1014.8 1011.5 6.4
18/04:00am 18.5 21.4 18.3 99 0.1 CALM 0 0 0 0 1014.6 1011.3 6.4
18/03:30am 18.6 20.4 18.4 99 0.1 WSW 6 7 3 4 1014.4 1011.1 6.4
18/03:00am 18.8 20.4 18.3 97 0.3 W 7 9 4 5 1014.4 1011.1 6.4
18/02:30am 19.0 19.9 18.5 97 0.3 WSW 11 13 6 7 1014.3 1011.0 6.4
18/02:00am 19.2 19.7 18.4 95 0.5 WSW 13 15 7 8 1014.3 1011.0 6.4
18/01:30am 19.7 20.2 18.4 92 0.8 WSW 13 17 7 9 1014.5 1011.2 6.4
18/01:00am 20.4 21.8 18.7 90 1.1 WSW 9 11 5 6 1014.5 1011.2 6.4
18/12:30am 20.7 23.0 18.5 87 1.4 WSW 4 13 2 7 1014.7 1011.4 6.4
18/12:00am 21.4 22.7 17.0 76 2.7 NNE 6 9 3 5 1015.1 1011.8 6.4
 
Date/Time
WST
Temp
°C
App
Temp
°C
Dew
Point
Rel
Hum
%
Delta-T
°C
Wind Press
QNH
hPa
Press
MSL
hPa
Rain
since 9 am
mm
Dir
 
Spd
km/h
Gust
km/h
Spd
kts
Gust
kts
17/11:30pm 21.0 22.2 17.4 80 2.3 N 7 13 4 7 1015.6 1012.3 6.4
17/11:00pm 20.7 21.3 17.7 83 1.9 NNE 11 13 6 7 1016.3 1013.0 6.4
17/10:30pm 20.0 19.1 18.1 89 1.2 ENE 20 28 11 15 1016.6 1013.3 6.4
17/10:00pm 19.7 18.0 19.0 96 0.4 ENE 26 37 14 20 1017.4 1014.1 6.4
17/09:30pm 19.4 18.3 19.4 100 0.0 NE 24 32 13 17 1017.9 1014.6 4.8
17/09:00pm 19.7 22.4 19.4 98 0.2 N 4 7 2 4 1020.0 1016.7 3.4
17/08:30pm 20.1 21.4 19.3 95 0.5 NNW 11 19 6 10 1019.9 1016.6 1.8
17/08:00pm 19.8 21.0 19.1 96 0.4 SSW 11 15 6 8 1018.4 1015.1 1.6
17/07:30pm 19.9 19.9 18.9 94 0.6 WSW 17 20 9 11 1017.9 1014.6 1.0
17/07:00pm 20.4 19.4 18.0 86 1.5 S 20 28 11 15 1016.3 1013.0 0.6
17/06:30pm 23.0 19.2 15.8 64 4.4 SSW 30 48 16 26 1016.2 1012.9 0.0
17/06:24pm 24.1 20.6 15.6 59 5.2 SSW 28 48 15 26 1015.9 1012.6 0.0
17/06:00pm 24.2 21.5 16.7 63 4.7 SSW 26 33 14 18 1015.1 1011.8 0.0

Other Formats:

Comma delimited format used in spreadsheet applications
http://www.bom.gov.au/fwo/IDW60801/IDW60801.94317.axf

JavaScript Object Notation format (JSON) in row-major order
http://www.bom.gov.au/fwo/IDW60801/IDW60801.94317.json